createdAt,value
2022-12-05T00:01:49.818Z,300.83
2022-12-05T00:04:16.631Z,344.67
2022-12-05T00:06:44.335Z,328.50
2022-12-05T00:09:12.614Z,344.33
2022-12-05T00:11:42.648Z,359.75
2022-12-05T00:14:10.246Z,402.00
2022-12-05T00:16:39.395Z,379.80
2022-12-05T00:19:07.976Z,392.90
2022-12-05T00:21:36.448Z,375.63
2022-12-05T00:24:05.781Z,359.10
2022-12-05T00:26:32.998Z,350.17
2022-12-05T00:29:00.205Z,352.75
2022-12-05T00:31:28.124Z,348.48
2022-12-05T00:33:55.720Z,321.85
2022-12-05T00:36:28.214Z,325.17
2022-12-05T00:38:55.812Z,360.63
2022-12-05T00:41:26.090Z,375.27
2022-12-05T00:43:53.390Z,375.85
2022-12-05T00:46:23.360Z,391.17
2022-12-05T00:48:52.071Z,350.13
2022-12-05T00:51:26.722Z,335.57
2022-12-05T00:53:58.034Z,342.75
2022-12-05T00:56:26.539Z,343.92
2022-12-05T00:58:56.502Z,352.85
2022-12-05T01:01:27.036Z,353.65
2022-12-05T01:03:55.902Z,358.40
2022-12-05T01:06:24.533Z,380.00
2022-12-05T01:08:55.598Z,242.60
2022-12-05T01:11:23.860Z,412.27
2022-12-05T01:13:51.002Z,405.05
2022-12-05T01:16:31.904Z,374.20
2022-12-05T01:19:00.657Z,344.70
2022-12-05T01:21:27.710Z,376.90
2022-12-05T01:23:54.710Z,403.23
2022-12-05T01:26:22.734Z,410.17
2022-12-05T01:28:50.969Z,422.13
2022-12-05T01:31:29.758Z,407.77
2022-12-05T01:33:58.425Z,405.65
2022-12-05T01:36:27.571Z,401.38
2022-12-05T01:38:55.021Z,386.05
2022-12-05T01:41:28.658Z,397.00
2022-12-05T01:44:00.119Z,397.30
2022-12-05T01:46:38.150Z,371.08
2022-12-05T01:49:15.250Z,411.75
2022-12-05T01:51:51.817Z,408.30
2022-12-05T01:54:20.678Z,419.27
2022-12-05T01:56:52.116Z,434.17
2022-12-05T01:59:21.083Z,432.45
2022-12-05T02:01:48.123Z,424.58
2022-12-05T02:04:15.066Z,444.20
2022-12-05T02:06:42.469Z,450.50
2022-12-05T02:09:09.386Z,455.00
2022-12-05T02:12:02.235Z,453.63
2022-12-05T02:14:44.887Z,483.60
2022-12-05T02:17:36.685Z,457.65
2022-12-05T02:20:26.879Z,434.83
2022-12-05T02:23:16.454Z,457.23
2022-12-05T02:26:04.817Z,415.77
2022-12-05T02:28:51.150Z,488.17
2022-12-05T02:31:40.748Z,504.03
2022-12-05T02:34:24.124Z,465.45
2022-12-05T02:37:03.050Z,527.40
2022-12-05T02:40:04.394Z,513.92
2022-12-05T02:42:49.222Z,514.53
2022-12-05T02:45:18.958Z,500.63
2022-12-05T02:47:49.092Z,515.30
2022-12-05T02:50:22.081Z,513.37
2022-12-05T02:52:50.835Z,474.35
2022-12-05T02:55:19.448Z,478.73
2022-12-05T02:57:52.894Z,484.60
2022-12-05T03:00:19.728Z,471.48
2022-12-05T03:02:48.558Z,509.50
2022-12-05T03:05:22.621Z,469.10
2022-12-05T03:07:52.220Z,485.13
2022-12-05T03:10:22.213Z,452.67
2022-12-05T03:12:54.534Z,335.67
2022-12-05T03:15:26.507Z,381.65
2022-12-05T03:17:59.821Z,387.27
2022-12-05T03:20:34.512Z,388.20
2022-12-05T03:23:12.614Z,395.67
2022-12-05T03:26:11.955Z,412.50
2022-12-05T03:29:20.266Z,396.70
2022-12-05T03:32:10.845Z,413.23
2022-12-05T03:35:07.707Z,418.92
2022-12-05T03:37:52.768Z,440.15
2022-12-05T03:40:19.560Z,426.67
2022-12-05T03:43:00.314Z,422.00
2022-12-05T03:45:39.767Z,455.60
2022-12-05T03:48:31.764Z,489.27
2022-12-05T03:51:00.034Z,468.45
2022-12-05T03:53:44.951Z,479.80
2022-12-05T03:56:19.481Z,540.05
2022-12-05T03:59:02.253Z,511.70
2022-12-05T04:01:31.433Z,514.72
2022-12-05T04:04:04.350Z,564.60
2022-12-05T04:06:35.285Z,584.33
2022-12-05T04:09:25.991Z,653.15
2022-12-05T04:11:57.616Z,880.42
2022-12-05T04:14:34.086Z,891.10
2022-12-05T04:17:09.817Z,921.13
2022-12-05T04:20:01.432Z,932.20
2022-12-05T04:22:28.816Z,880.65
2022-12-05T04:25:17.423Z,924.57
2022-12-05T04:27:54.585Z,952.75
2022-12-05T04:30:25.779Z,974.25
2022-12-05T04:33:09.385Z,963.25
2022-12-05T04:35:46.309Z,977.80
2022-12-05T04:38:40.040Z,956.95
2022-12-05T04:41:12.877Z,942.47
2022-12-05T04:43:41.930Z,945.50
2022-12-05T04:46:11.884Z,1014.00
2022-12-05T04:48:41.691Z,1012.00
2022-12-05T04:51:13.144Z,1007.97
2022-12-05T04:53:42.485Z,1039.57
2022-12-05T04:56:11.632Z,1042.03
2022-12-05T04:58:38.513Z,1045.10
2022-12-05T05:01:37.178Z,1035.28
2022-12-05T05:04:25.766Z,1041.88
2022-12-05T05:06:52.697Z,1038.32
2022-12-05T05:09:19.457Z,1037.73
2022-12-05T05:11:46.315Z,1022.55
2022-12-05T05:14:15.104Z,1033.90
2022-12-05T05:16:42.915Z,1027.13
2022-12-05T05:19:11.858Z,1027.10
2022-12-05T05:21:41.307Z,1032.28
2022-12-05T05:24:09.811Z,1029.97
2022-12-05T05:26:39.546Z,1033.75
2022-12-05T05:29:06.547Z,1033.40
2022-12-05T05:31:33.666Z,1027.23
2022-12-05T05:34:04.540Z,1018.42
2022-12-05T05:36:36.086Z,1028.75
2022-12-05T05:39:03.731Z,1026.68
2022-12-05T05:41:33.652Z,1030.05
2022-12-05T05:44:01.067Z,1035.75
2022-12-05T05:46:30.605Z,1030.72
2022-12-05T05:48:58.245Z,1030.68
2022-12-05T05:51:27.928Z,1030.07
2022-12-05T05:53:54.918Z,1028.28
2022-12-05T05:56:22.376Z,1026.03
2022-12-05T05:58:56.033Z,1029.32
2022-12-05T06:01:23.190Z,1031.45
2022-12-05T06:03:53.405Z,1028.20
2022-12-05T06:06:21.674Z,1039.10
2022-12-05T06:08:48.701Z,1025.32
2022-12-05T06:11:25.853Z,1029.55
2022-12-05T06:13:57.592Z,1029.00
2022-12-05T06:16:25.108Z,1029.32
2022-12-05T06:18:52.642Z,1030.55
2022-12-05T06:21:20.208Z,1018.50
2022-12-05T06:23:47.819Z,1020.67
2022-12-05T06:26:17.578Z,1020.58
2022-12-05T06:28:45.348Z,1023.65
2022-12-05T06:31:14.747Z,1024.77
2022-12-05T06:33:41.696Z,1022.22
2022-12-05T06:36:14.775Z,1024.40
2022-12-05T06:38:43.004Z,1023.05
2022-12-05T06:41:15.965Z,1032.03
2022-12-05T06:43:43.153Z,1028.43
2022-12-05T06:46:12.352Z,1034.87
2022-12-05T06:48:39.593Z,1023.23
2022-12-05T06:51:09.423Z,1023.80
2022-12-05T06:53:36.173Z,1029.05
2022-12-05T06:56:07.427Z,1029.05
2022-12-05T06:58:34.337Z,1026.28
2022-12-05T07:01:21.013Z,1029.25
2022-12-05T07:03:52.066Z,1032.95
2022-12-05T07:06:18.837Z,965.58
2022-12-05T07:08:45.549Z,1020.00
2022-12-05T07:11:12.262Z,1012.47
2022-12-05T07:13:39.238Z,1017.15
2022-12-05T07:16:09.874Z,1011.23
2022-12-05T07:18:37.272Z,1023.03
2022-12-05T07:21:12.094Z,1021.05
2022-12-05T07:23:42.872Z,1026.60
2022-12-05T07:26:12.882Z,1017.78
2022-12-05T07:28:39.752Z,1016.83
2022-12-05T07:31:09.400Z,1026.35
2022-12-05T07:33:38.428Z,1025.50
2022-12-05T07:36:23.780Z,1032.07
2022-12-05T07:38:56.575Z,1027.05
2022-12-05T07:41:29.022Z,1025.35
2022-12-05T07:43:57.760Z,1026.18
2022-12-05T07:46:25.889Z,1025.47
2022-12-05T07:48:53.159Z,1025.75
2022-12-05T07:51:20.884Z,1023.65
2022-12-05T07:53:48.601Z,1024.35
2022-12-05T07:56:17.482Z,1027.93
2022-12-05T07:58:46.153Z,1033.30
2022-12-05T08:01:16.181Z,1042.38
2022-12-05T08:03:43.632Z,1040.57
2022-12-05T08:06:13.310Z,1037.03
2022-12-05T08:08:40.526Z,1044.00
2022-12-05T08:11:10.265Z,1037.13
2022-12-05T08:13:37.714Z,1037.07
2022-12-05T08:16:06.850Z,1041.85
2022-12-05T08:18:34.037Z,1017.65
2022-12-05T08:21:05.169Z,1041.13
2022-12-05T08:23:32.907Z,1048.95
2022-12-05T08:26:04.807Z,1047.97
2022-12-05T08:28:32.824Z,1047.10
2022-12-05T08:31:12.207Z,1042.45
2022-12-05T08:33:39.200Z,1045.28
2022-12-05T08:36:09.415Z,1049.68
2022-12-05T08:38:36.962Z,1047.80
2022-12-05T08:41:06.137Z,1049.47
2022-12-05T08:43:33.574Z,1057.13
2022-12-05T08:46:00.859Z,1011.63
2022-12-05T08:48:29.931Z,1013.53
2022-12-05T08:50:57.654Z,1012.30
2022-12-05T08:53:25.093Z,1016.53
2022-12-05T08:55:51.902Z,1024.07
2022-12-05T08:58:18.587Z,1020.70
2022-12-05T09:00:46.528Z,937.13
2022-12-05T09:03:13.343Z,1029.70
2022-12-05T09:05:40.310Z,1034.30
2022-12-05T09:08:07.181Z,1017.23
2022-12-05T09:10:34.005Z,1016.78
2022-12-05T09:13:00.967Z,1015.27
2022-12-05T09:15:29.538Z,1022.63
2022-12-05T09:17:56.323Z,1036.73
2022-12-05T09:20:23.038Z,1025.30
2022-12-05T09:22:49.825Z,1032.35
2022-12-05T09:25:16.593Z,986.20
2022-12-05T09:27:43.390Z,961.00
2022-12-05T09:30:11.547Z,956.95
2022-12-05T09:32:38.286Z,949.80
2022-12-05T09:35:05.358Z,944.95
2022-12-05T09:37:40.317Z,962.53
2022-12-05T09:40:18.693Z,961.80
2022-12-05T09:42:49.362Z,968.83
2022-12-05T09:45:43.186Z,979.10
2022-12-05T09:48:18.906Z,970.00
2022-12-05T09:50:46.010Z,1007.70
2022-12-05T09:53:32.634Z,1044.70
2022-12-05T09:56:05.471Z,1055.72
2022-12-05T09:58:48.334Z,1063.65
2022-12-05T10:01:24.297Z,1064.63
2022-12-05T10:04:11.827Z,1054.75
2022-12-05T10:07:07.194Z,1059.88
2022-12-05T10:09:50.042Z,1060.72
2022-12-05T10:12:24.863Z,1056.70
2022-12-05T10:15:18.045Z,1058.03
2022-12-05T10:18:01.322Z,1035.33
2022-12-05T10:20:42.105Z,1050.23
2022-12-05T10:23:49.029Z,1063.47
2022-12-05T10:26:11.322Z,1061.70
2022-12-05T10:29:17.761Z,1068.27
2022-12-05T10:31:47.648Z,1069.17
2022-12-05T10:34:39.237Z,1076.70
2022-12-05T10:37:17.760Z,1065.45
2022-12-05T10:39:45.539Z,1068.80
2022-12-05T10:42:33.716Z,1070.60
2022-12-05T10:45:05.554Z,1073.15
2022-12-05T10:47:33.127Z,1075.23
2022-12-05T10:50:08.123Z,1057.90
2022-12-05T10:52:36.035Z,1071.33
2022-12-05T10:55:06.304Z,1074.47
2022-12-05T10:57:32.999Z,1075.32
2022-12-05T11:00:15.164Z,1061.35
2022-12-05T11:02:43.791Z,1074.03
2022-12-05T11:05:11.655Z,1081.20
2022-12-05T11:07:48.512Z,1052.17
2022-12-05T11:10:26.534Z,1060.00
2022-12-05T11:12:57.224Z,1056.70
2022-12-05T11:15:27.778Z,1055.13
2022-12-05T11:17:56.904Z,1049.03
2022-12-05T11:20:23.613Z,1040.72
2022-12-05T11:22:56.328Z,1062.13
2022-12-05T11:25:34.140Z,1059.82
2022-12-05T11:28:20.835Z,1052.23
2022-12-05T11:31:21.139Z,1053.53
2022-12-05T11:34:02.323Z,1042.65
2022-12-05T11:36:46.328Z,1061.72
2022-12-05T11:39:14.181Z,1059.72
2022-12-05T11:42:16.361Z,1056.35
2022-12-05T11:45:16.965Z,1033.18
2022-12-05T11:48:08.134Z,1031.97
2022-12-05T11:50:49.162Z,1034.88
2022-12-05T11:53:24.687Z,1043.72
2022-12-05T11:56:20.733Z,1036.90
2022-12-05T11:58:56.683Z,1048.30
2022-12-05T12:01:45.074Z,1043.05
2022-12-05T12:04:57.054Z,1042.45
2022-12-05T12:07:48.347Z,1051.72
2022-12-05T12:10:35.516Z,1042.30
2022-12-05T12:13:19.441Z,1048.68
2022-12-05T12:16:07.961Z,1049.05
2022-12-05T12:19:02.910Z,1056.25
2022-12-05T12:22:07.241Z,1052.67
2022-12-05T12:25:16.814Z,1060.17
2022-12-05T12:28:23.138Z,1057.13
2022-12-05T12:31:11.002Z,1061.97
2022-12-05T12:34:04.934Z,1062.35
2022-12-05T12:36:31.753Z,1054.53
2022-12-05T12:39:05.595Z,1059.88
2022-12-05T12:42:08.971Z,1059.53
2022-12-05T12:44:50.726Z,1049.72
2022-12-05T12:47:54.244Z,1052.72
2022-12-05T12:50:23.440Z,1058.13
2022-12-05T12:53:23.351Z,1054.80
2022-12-05T12:56:28.052Z,1044.63
2022-12-05T12:59:04.434Z,1053.30
2022-12-05T13:01:42.281Z,1054.38
2022-12-05T13:04:29.859Z,1058.15
2022-12-05T13:07:05.167Z,1058.47
2022-12-05T13:09:47.323Z,1056.38
2022-12-05T13:12:24.196Z,1056.90
2022-12-05T13:15:00.436Z,1051.70
2022-12-05T13:17:30.353Z,1060.65
2022-12-05T13:19:57.693Z,1063.13
2022-12-05T13:22:27.251Z,1040.57
2022-12-05T13:24:55.535Z,1044.80
2022-12-05T13:27:27.862Z,1047.63
2022-12-05T13:29:59.868Z,1061.95
2022-12-05T13:32:36.189Z,954.55
2022-12-05T13:36:00.367Z,1041.82
2022-12-05T13:38:56.457Z,1034.20
2022-12-05T13:41:56.663Z,1043.13
2022-12-05T13:44:45.445Z,1052.30
2022-12-05T13:47:33.280Z,1051.47
2022-12-05T13:50:07.240Z,1053.90
2022-12-05T13:52:53.589Z,1056.30
2022-12-05T13:55:37.725Z,1071.45
2022-12-05T13:58:28.206Z,1019.85
2022-12-05T14:01:27.222Z,1036.30
2022-12-05T14:03:58.848Z,1029.15
2022-12-05T14:06:38.509Z,1026.32
2022-12-05T14:09:29.697Z,1029.13
2022-12-05T14:12:12.106Z,1022.07
2022-12-05T14:14:57.238Z,1022.90
2022-12-05T14:17:45.017Z,1019.88
2022-12-05T14:20:15.900Z,1029.72
2022-12-05T14:23:30.319Z,1013.10
2022-12-05T14:26:05.582Z,1017.85
2022-12-05T14:28:37.995Z,1024.63
2022-12-05T14:31:34.287Z,1027.95
2022-12-05T14:34:24.879Z,1074.63
2022-12-05T14:36:57.783Z,1077.90
2022-12-05T14:39:37.136Z,1079.00
2022-12-05T14:42:20.683Z,1094.88
2022-12-05T14:44:51.153Z,1095.65
2022-12-05T14:47:25.226Z,1090.63
2022-12-05T14:49:53.692Z,1088.37
2022-12-05T14:52:25.964Z,1084.10
2022-12-05T14:54:55.141Z,1074.45
2022-12-05T14:57:23.018Z,1096.30
2022-12-05T14:59:58.610Z,1089.65
2022-12-05T15:02:35.971Z,1087.60
2022-12-05T15:05:20.615Z,1107.77
2022-12-05T15:07:48.538Z,1111.22
2022-12-05T15:10:25.037Z,1095.40
2022-12-05T15:13:00.681Z,1091.90
2022-12-05T15:15:40.301Z,1099.60
2022-12-05T15:18:38.589Z,1032.45
2022-12-05T15:21:23.692Z,1136.95
2022-12-05T15:24:00.606Z,1028.55
2022-12-05T15:26:46.872Z,1028.93
2022-12-05T15:29:20.521Z,1025.75
2022-12-05T15:31:51.774Z,1025.10
2022-12-05T15:34:24.862Z,1030.10
2022-12-05T15:36:57.872Z,1022.25
2022-12-05T15:39:26.411Z,1017.92
2022-12-05T15:41:54.606Z,1021.45
2022-12-05T15:44:27.095Z,1002.35
2022-12-05T15:46:57.335Z,996.03
2022-12-05T15:49:26.778Z,1002.22
2022-12-05T15:52:21.510Z,1015.90
2022-12-05T15:54:48.694Z,1017.80
2022-12-05T15:57:22.850Z,1024.75
2022-12-05T16:00:02.181Z,1023.72
2022-12-05T16:02:58.746Z,1016.85
2022-12-05T16:05:39.210Z,1019.53
2022-12-05T16:08:06.994Z,1012.00
2022-12-05T16:10:34.404Z,1023.08
2022-12-05T16:13:13.446Z,1024.70
2022-12-05T16:15:52.503Z,1030.95
2022-12-05T16:18:29.418Z,1027.25
2022-12-05T16:20:56.825Z,1020.90
2022-12-05T16:23:25.819Z,1027.15
2022-12-05T16:25:52.694Z,1027.57
2022-12-05T16:28:21.457Z,1021.45
2022-12-05T16:31:00.095Z,1003.42
2022-12-05T16:33:29.227Z,1020.73
2022-12-05T16:35:56.475Z,1025.95
2022-12-05T16:38:32.046Z,1018.65
2022-12-05T16:41:04.837Z,1032.45
2022-12-05T16:43:34.736Z,1039.75
2022-12-05T16:46:13.996Z,1040.15
2022-12-05T16:48:44.411Z,1034.78
2022-12-05T16:51:14.611Z,1028.18
2022-12-05T16:53:48.113Z,980.63
2022-12-05T16:56:42.279Z,990.45
2022-12-05T16:59:20.498Z,1006.85
2022-12-05T17:01:49.025Z,759.85
2022-12-05T17:04:16.085Z,703.78
2022-12-05T17:06:46.519Z,791.00
2022-12-05T17:09:14.349Z,797.45
2022-12-05T17:11:49.275Z,733.88
2022-12-05T17:14:18.360Z,749.40
2022-12-05T17:16:45.601Z,668.63
2022-12-05T17:19:12.620Z,735.20
2022-12-05T17:21:42.176Z,663.33
2022-12-05T17:24:17.694Z,731.78
2022-12-05T17:26:45.059Z,842.63
2022-12-05T17:29:12.107Z,1001.38
2022-12-05T17:31:39.353Z,777.70
2022-12-05T17:34:15.575Z,765.55
2022-12-05T17:36:43.104Z,839.65
2022-12-05T17:39:09.891Z,649.10
2022-12-05T17:41:37.163Z,637.03
2022-12-05T17:44:07.270Z,621.47
2022-12-05T17:46:34.019Z,595.53
2022-12-05T17:49:01.052Z,637.50
2022-12-05T17:51:27.941Z,607.90
2022-12-05T17:53:54.831Z,612.13
2022-12-05T17:56:21.948Z,622.13
2022-12-05T17:58:49.514Z,614.33
2022-12-05T18:01:19.528Z,692.40
2022-12-05T18:03:47.389Z,723.75
2022-12-05T18:06:17.004Z,739.65
2022-12-05T18:08:45.110Z,728.88
2022-12-05T18:11:14.659Z,731.80
2022-12-05T18:13:41.654Z,594.00
2022-12-05T18:16:08.505Z,695.97
2022-12-05T18:18:35.714Z,593.28
2022-12-05T18:21:10.976Z,667.20
2022-12-05T18:23:39.313Z,687.78
2022-12-05T18:26:08.833Z,760.17
2022-12-05T18:28:37.258Z,817.90
2022-12-05T18:31:15.548Z,836.10
2022-12-05T18:33:45.908Z,824.53
2022-12-05T18:36:15.757Z,811.00
2022-12-05T18:38:43.409Z,868.97
2022-12-05T18:41:10.651Z,882.22
2022-12-05T18:43:37.501Z,926.35
2022-12-05T18:46:04.741Z,896.80
2022-12-05T18:48:43.653Z,944.55
2022-12-05T18:51:15.328Z,960.63
2022-12-05T18:53:42.901Z,1011.65
2022-12-05T18:56:26.806Z,981.95
2022-12-05T18:59:02.655Z,818.10
2022-12-05T19:01:32.086Z,782.80
2022-12-05T19:04:00.731Z,884.60
2022-12-05T19:06:30.855Z,995.08
2022-12-05T19:09:00.550Z,1011.47
2022-12-05T19:11:29.215Z,1004.90
2022-12-05T19:14:04.305Z,979.85
2022-12-05T19:16:32.914Z,1031.97
2022-12-05T19:19:02.136Z,1021.40
2022-12-05T19:21:30.944Z,1008.85
2022-12-05T19:23:58.497Z,1006.47
2022-12-05T19:26:25.981Z,1013.95
2022-12-05T19:28:54.552Z,1003.20
2022-12-05T19:31:24.556Z,1018.50
2022-12-05T19:33:53.570Z,1006.38
2022-12-05T19:36:30.394Z,1012.75
2022-12-05T19:38:58.266Z,1019.03
2022-12-05T19:41:28.332Z,997.77
2022-12-05T19:43:59.729Z,993.45
2022-12-05T19:46:29.606Z,1002.15
2022-12-05T19:48:58.116Z,1002.60
2022-12-05T19:51:25.004Z,997.67
2022-12-05T19:53:51.999Z,964.00
2022-12-05T19:56:24.241Z,952.95
2022-12-05T19:58:52.599Z,960.08
2022-12-05T20:01:20.479Z,991.53
2022-12-05T20:03:49.823Z,1005.83
2022-12-05T20:06:19.781Z,1003.22
2022-12-05T20:08:52.213Z,1020.03
2022-12-05T20:11:24.675Z,1008.77
2022-12-05T20:13:54.806Z,940.50
2022-12-05T20:16:23.860Z,957.78
2022-12-05T20:18:57.436Z,919.72
2022-12-05T20:21:25.214Z,953.85
2022-12-05T20:23:52.986Z,1001.22
2022-12-05T20:26:24.899Z,989.53
2022-12-05T20:28:51.931Z,987.42
2022-12-05T20:31:21.923Z,998.07
2022-12-05T20:33:53.344Z,997.45
2022-12-05T20:36:30.821Z,1006.35
2022-12-05T20:39:02.950Z,1012.13
2022-12-05T20:41:30.377Z,1014.22
2022-12-05T20:44:00.034Z,1001.97
2022-12-05T20:46:28.260Z,1013.72
2022-12-05T20:48:58.797Z,999.27
2022-12-05T20:51:28.507Z,1016.75
2022-12-05T20:53:57.194Z,1013.30
2022-12-05T20:56:29.637Z,1017.67
2022-12-05T20:58:58.492Z,1020.30
2022-12-05T21:01:26.610Z,1015.05
2022-12-05T21:03:55.024Z,1010.95
2022-12-05T21:06:29.391Z,1022.97
2022-12-05T21:08:57.088Z,1021.83
2022-12-05T21:11:25.770Z,1018.13
2022-12-05T21:13:55.855Z,1023.88
2022-12-05T21:16:23.381Z,1010.33
2022-12-05T21:18:52.189Z,996.45
2022-12-05T21:21:21.850Z,1007.38
2022-12-05T21:23:54.654Z,1032.00
2022-12-05T21:26:22.876Z,1035.47
2022-12-05T21:28:49.660Z,1034.72
2022-12-05T21:31:28.425Z,1010.70
2022-12-05T21:33:57.558Z,1017.05
2022-12-05T21:36:27.383Z,1011.33
2022-12-05T21:38:56.523Z,1002.95
2022-12-05T21:41:26.791Z,1001.15
2022-12-05T21:43:55.630Z,1007.72
2022-12-05T21:46:24.704Z,1018.03
2022-12-05T21:48:52.728Z,1024.35
2022-12-05T21:51:20.178Z,1022.90
2022-12-05T21:53:47.283Z,1021.28
2022-12-05T21:56:17.710Z,1026.30
2022-12-05T21:58:46.465Z,1029.95
2022-12-05T22:01:19.177Z,1049.82
2022-12-05T22:03:46.735Z,1047.00
2022-12-05T22:06:15.580Z,1050.93
2022-12-05T22:08:42.920Z,1048.53
2022-12-05T22:11:15.083Z,1034.80
2022-12-05T22:13:42.556Z,1025.18
2022-12-05T22:16:09.582Z,1029.90
2022-12-05T22:18:37.178Z,1038.63
2022-12-05T22:21:13.167Z,1032.50
2022-12-05T22:23:40.234Z,1033.88
2022-12-05T22:26:08.373Z,1032.05
2022-12-05T22:28:36.041Z,1036.80
2022-12-05T22:31:07.972Z,1039.40
2022-12-05T22:33:36.546Z,1042.00
2022-12-05T22:36:07.799Z,1043.38
2022-12-05T22:38:37.142Z,1038.25
2022-12-05T22:41:15.922Z,1033.18
2022-12-05T22:43:45.653Z,1040.18
2022-12-05T22:46:20.431Z,1024.90
2022-12-05T22:48:48.688Z,1025.03
2022-12-05T22:51:17.022Z,1028.15
2022-12-05T22:53:44.205Z,1029.78
2022-12-05T22:56:13.750Z,1050.45
2022-12-05T22:58:42.015Z,1048.38
2022-12-05T23:01:11.149Z,1053.47
2022-12-05T23:03:39.548Z,1045.55
2022-12-05T23:06:11.737Z,1049.68
2022-12-05T23:08:40.410Z,1050.53
2022-12-05T23:11:08.523Z,1052.22
2022-12-05T23:13:36.499Z,1038.35
2022-12-05T23:16:12.155Z,1040.40
2022-12-05T23:18:48.447Z,1036.25
2022-12-05T23:21:21.484Z,1029.47
2022-12-05T23:23:50.273Z,1031.13
2022-12-05T23:26:19.405Z,1026.30
2022-12-05T23:28:46.210Z,1041.10
2022-12-05T23:31:14.379Z,1037.90
2022-12-05T23:33:41.625Z,1048.10
2022-12-05T23:36:10.194Z,1033.55
2022-12-05T23:38:38.965Z,1042.93
2022-12-05T23:41:13.276Z,1048.30
2022-12-05T23:43:41.317Z,1043.80
2022-12-05T23:46:13.466Z,1041.67
2022-12-05T23:48:40.579Z,1037.85
2022-12-05T23:51:10.764Z,1041.20
2022-12-05T23:53:39.509Z,1041.00
2022-12-05T23:56:08.222Z,1039.13
2022-12-05T23:58:35.650Z,1040.00
